Terminal Aerodrome Forecast
Issued by NWS Cleveland, OH

Home | Current Version | Previous Version | Text Only | Print | Product List | Glossary On
Versions: 1 2 3 4 5 6 7 8 9 10 11 12 13 14 15 16 17 18 19 20 21 22 23 24 25
980
FTUS41 KCLE 191351 AAB
TAFTOL
TAF AMD
KTOL 191351Z 1914/2012 06005KT 4SM BR VCTS SCT005 OVC040CB
      TEMPO 1914/1916 1/2SM TSRA OVC005CB
     FM191600 07005KT 5SM -SHRA OVC010
     FM191800 05005KT P6SM VCSH OVC025
     FM192100 10005KT P6SM BKN035
     FM200400 VRB03KT P6SM BKN008=

USA.gov is the U.S. government's official web portal to all federal, state and local government web resources and services.